x

Ne Bahamas - 350 Nm Ene Of Nassau, Bahamas (41047) Weather Station

10:20am - Wed 22nd Nov 2017 All times are UTC.

  • Wind
    13mph, 18mph gusts
  • Sea Temp 79°f
  • Air Temp 71°f
  • Sea Pressure 1013mb

More Historic Weather Station data

Upgrade to MSW Pro to gain access to the past 30 days of data for over 8000 Wavebouys and Weather Stations around the globe.

Join

Comparision Forecast

View Surf forecast
   
Wed 11/22 10:20am  -   -   -  13 18 mph 1013mb 79f 71f
10:10am  -   -   -  11 18 mph 1013.1mb 80f 71f
10:00am  -   -   -  11 18 mph 1013.2mb 79f 71f
9:50am 10ft 9s 7s 13 18 mph 1013.4mb 80f 71f
9:40am  -   -   -  9 18 mph 1013.4mb 80f 71f
9:30am  -   -   -  9 13 mph 1013.6mb 80f 71f
9:20am  -   -   -  9 11 mph 1013.6mb 80f 71f
9:10am  -   -   -  11 16 mph 1013.7mb 79f 71f
9:00am  -   -   -  11 18 mph 1013.6mb 80f 71f
8:50am 10ft 9s 7s 13 18 mph 1013.7mb 80f 71f
8:40am 10ft  -  7s 13 18 mph 1013.7mb 80f 71f
8:30am  -   -   -  13 16 mph 1013.7mb 79f 71f
8:20am  -   -   -  9 13 mph 1013.7mb 80f 71f
8:10am  -   -   -  9 11 mph 1013.9mb 80f 71f
8:00am  -   -   -  9 13 mph 1014mb 80f 71f
5:10am  -   -   -  18 22 mph 1015.1mb 80f 70f
5:00am  -   -   -  20 25 mph 1015.2mb 80f 69f
4:40am  -   -   -  18 22 mph 1015.3mb 80f 70f
4:30am  -   -   -  20 25 mph 1015.5mb 80f 70f
4:20am  -   -   -  20 29 mph 1015.8mb 80f 70f
4:10am  -   -   -  25 34 mph 1015.9mb 80f 71f
4:00am  -   -   -  27 34 mph 1015.7mb 80f 71f
3:50am 9.5ft 9s 6s 27 31 mph 1015.7mb 80f 72f
3:40am  -   -   -  25 34 mph 1016mb 80f 73f
3:30am  -   -   -  25 29 mph 1015.7mb 80f 73f
3:20am  -   -   -  22 29 mph 1015.9mb 80f 73f
3:10am  -   -   -  25 29 mph 1015.9mb 80f 73f
3:00am  -   -   -  22 29 mph 1015.9mb 80f 73f
2:50am 9.5ft 9s 6s 27 34 mph 1016.1mb 80f 73f
2:40am 9.5ft  -  6s 25 34 mph 1016mb 80f 74f
2:30am  -   -   -  25 31 mph 1015.9mb 80f 74f
2:20am  -   -   -  22 29 mph 1016mb 80f 74f
2:10am  -   -   -  25 31 mph 1016mb 80f 74f
2:00am  -   -   -  22 29 mph 1016.2mb 80f 74f
1:50am 10ft 8s 7s 22 31 mph 1016.4mb 80f 74f
1:40am  -   -   -  22 27 mph 1016.4mb 80f 74f
1:30am  -   -   -  22 27 mph 1016.4mb 80f 73f
1:20am  -   -   -  20 27 mph 1016.6mb 80f 73f
1:10am  -   -   -  22 27 mph 1016.5mb - 73f
1:00am  -   -   -  20 27 mph 1016.7mb 80f 73f
12:50am 10ft 8s 6s 22 27 mph 1016.7mb 80f 73f
12:40am 10ft  -  6s 22 29 mph 1016.6mb - 73f
12:30am  -   -   -  25 31 mph 1016.6mb 80f 73f
12:20am  -   -   -  22 31 mph 1016.7mb 80f 73f
12:10am  -   -   -  22 29 mph 1016.7mb 80f 74f
12:00am  -   -   -  22 29 mph 1016.9mb 80f 73f
Tue 11/21 11:50pm 11ft 9s 7s 20 25 mph 1017mb - 73f
11:40pm 11ft  -  7s 22 29 mph 1017mb 80f 73f
11:30pm  -   -   -  20 27 mph 1016.8mb 80f 73f
11:20pm  -   -   -  20 27 mph 1016.7mb 80f 73f
11:10pm  -   -   -  22 27 mph 1016.6mb 80f 73f
11:00pm  -   -   -  22 27 mph 1016.6mb 80f 73f
10:50pm 11ft 9s 7s 25 29 mph 1016.6mb 80f 73f
10:40pm  -   -   -  22 31 mph 1016.5mb 80f 74f
10:30pm  -   -   -  25 31 mph 1016.6mb - 74f
10:20pm  -   -   -  25 31 mph 1016.5mb 80f 74f
10:10pm  -   -   -  25 29 mph 1016.5mb 80f 74f
10:00pm  -   -   -  25 31 mph 1016.4mb 80f 73f
9:50pm 10ft 9s 6s 25 36 mph 1016.5mb 80f 74f
9:40pm 10ft  -  6s 25 31 mph 1016.4mb 80f 74f
9:30pm  -   -   -  25 29 mph 1016.4mb 80f 74f
9:20pm  -   -   -  25 31 mph 1016.4mb 80f 74f
9:10pm  -   -   -  25 29 mph 1016.4mb 80f 74f
9:00pm  -   -   -  22 29 mph 1016.5mb 80f 74f
8:50pm 11.5ft 8s 7s 25 29 mph 1016.5mb 80f 74f
8:40pm 11.5ft  -  7s 22 29 mph 1016.4mb 80f 74f
8:30pm  -   -   -  25 31 mph 1016.5mb 80f 74f
8:20pm  -   -   -  25 31 mph 1016.5mb 80f 74f
8:10pm  -   -   -  25 31 mph 1016.5mb 80f 74f
8:00pm  -   -   -  22 31 mph 1016.6mb 80f 74f
7:50pm 10ft 9s 7s 22 29 mph 1016.6mb 80f 74f
7:40pm 10ft  -  7s 25 31 mph 1016.6mb 80f 74f
7:30pm  -   -   -  25 31 mph 1016.6mb 80f 74f
7:20pm  -   -   -  25 31 mph 1016.6mb 80f 74f
7:10pm  -   -   -  25 31 mph 1016.5mb 80f 74f
7:00pm  -   -   -  27 31 mph 1016.5mb 80f 74f
6:50pm 9ft 8s 6s 25 31 mph 1016.6mb 80f 74f
6:40pm  -   -   -  27 31 mph 1016.6mb 80f 74f
6:30pm  -   -   -  25 31 mph 1016.7mb 80f 74f
6:20pm  -   -   -  25 31 mph 1016.9mb 80f 74f
6:10pm  -   -   -  22 31 mph 1016.9mb 80f 74f
6:00pm  -   -   -  25 27 mph 1017.1mb 80f 74f
5:50pm 10ft 8s 7s 25 29 mph 1017.2mb 80f 73f
5:40pm 10ft  -  7s 25 29 mph 1017.3mb 80f 73f
5:30pm  -   -   -  25 31 mph 1017.4mb 80f 73f
5:20pm  -   -   -  22 29 mph 1017.7mb 80f 73f
5:10pm  -   -   -  25 29 mph 1017.9mb 80f 73f
5:00pm  -   -   -  25 34 mph 1018mb 80f 73f
4:50pm 9.5ft 8s 6s 22 29 mph 1018.2mb 80f 74f
4:40pm  -   -   -  25 31 mph 1018.1mb 80f 74f
4:30pm  -   -   -  22 29 mph 1018.3mb 80f 73f
4:20pm  -   -   -  22 29 mph 1018.4mb - 73f
4:10pm  -   -   -  22 29 mph 1018.6mb 80f 73f
4:00pm  -   -   -  22 29 mph 1018.7mb 80f 72f
3:50pm 10.5ft 8s 7s 22 29 mph 1018.9mb 80f 72f
3:40pm 10.5ft  -  7s 25 29 mph 1019mb 80f 72f
3:30pm  -   -   -  22 29 mph 1019.1mb 80f 72f
3:20pm  -   -   -  25 29 mph 1019.2mb 80f 72f
3:10pm  -   -   -  22 27 mph 1019.3mb 80f 72f
3:00pm  -   -   -  22 29 mph 1019.4mb 80f 72f
2:50pm 10ft 8s 6s 25 31 mph 1019.4mb - 72f
2:40pm 10ft  -  6s 27 31 mph 1019.3mb 80f 72f
2:30pm  -   -   -  27 34 mph 1019.4mb 80f 72f
2:20pm  -   -   -  27 34 mph 1019.3mb 80f 71f
2:10pm  -   -   -  25 29 mph 1019.4mb 80f 71f
2:00pm  -   -   -  25 29 mph 1019.4mb 80f 71f
1:50pm  -   -   -  25 31 mph 1019.4mb 80f 70f
1:40pm  -   -   -  27 34 mph 1019.6mb 80f 71f
1:30pm  -   -   -  27 31 mph 1019.3mb 80f 71f
1:20pm  -   -   -  27 34 mph 1019.3mb 80f 71f
1:10pm  -   -   -  29 36 mph 1019.2mb 80f 71f
1:00pm  -   -   -  27 34 mph 1019.2mb - 71f
12:50pm 9ft 7s 6s 29 34 mph 1019.1mb 80f 70f
12:40pm  -   -   -  29 38 mph 1018.9mb 80f 70f
12:30pm  -   -   -  29 38 mph 1018.8mb 80f 69f
12:20pm  -   -   -  25 34 mph 1019mb 80f 68f
12:10pm  -   -   -  22 29 mph 1019.1mb 80f 69f
12:00pm  -   -   -  27 34 mph 1019.1mb 80f 70f
11:50am 9.5ft 8s 6s 27 31 mph 1018.9mb 80f 70f
11:40am 9.5ft  -  6s 27 31 mph 1018.9mb 80f 70f
11:30am  -   -   -  27 34 mph 1018.8mb 80f 70f
11:20am  -   -   -  25 34 mph 1018.6mb 80f 69f
11:10am  -   -   -  27 34 mph 1018.8mb 80f 70f
11:00am  -   -   -  27 36 mph 1018.6mb 80f 71f
10:50am 9.5ft 7s 6s 27 36 mph 1018.6mb 80f 72f
10:40am  -   -   -  29 36 mph 1018.3mb 80f 72f
10:30am  -   -   -  29 36 mph 1018.3mb 80f 73f
10:20am  -   -   -  29 38 mph 1018.2mb 80f 73f
10:10am  -   -   -  29 36 mph 1018.2mb 80f 73f
10:00am  -   -   -  27 36 mph 1018.1mb 80f 73f
9:50am 9ft 8s 6s 27 36 mph 1018.2mb 80f 73f
9:40am 9ft  -  6s 25 31 mph 1018.2mb 80f 73f
9:30am  -   -   -  25 34 mph 1018.2mb 80f 73f
9:20am  -   -   -  27 34 mph 1018.2mb 80f 73f
9:10am  -   -   -  27 34 mph 1018.2mb 80f 73f
9:00am  -   -   -  27 31 mph 1018.1mb 80f 73f
8:50am 9ft 7s 6s 27 34 mph 1018mb 80f 73f
8:40am 9ft  -  6s 27 34 mph 1018mb 80f 73f
8:30am  -   -   -  27 34 mph 1018.1mb 80f 73f
8:20am  -   -   -  25 34 mph 1018.3mb 80f 73f
8:10am  -   -   -  27 34 mph 1018.3mb 80f 73f
8:00am  -   -   -  25 31 mph 1018.4mb 80f 73f
7:50am 9ft 8s 6s 25 31 mph 1018.5mb 80f 73f
7:40am  -   -   -  25 31 mph 1018.5mb 80f 73f
7:30am  -   -   -  27 34 mph 1018.4mb 80f 73f
7:20am  -   -   -  27 31 mph 1018.5mb 80f 73f
7:10am  -   -   -  27 31 mph 1018.5mb 80f 73f
7:00am  -   -   -  27 34 mph 1018.6mb - 73f
6:50am 8ft 7s 6s 25 34 mph 1018.6mb 80f 73f
6:40am  -   -   -  25 34 mph 1018.7mb 80f 73f
6:30am  -   -   -  27 34 mph 1018.7mb 80f 73f
6:20am  -   -   -  25 31 mph 1018.7mb 80f 73f
6:10am  -   -   -  25 31 mph 1018.8mb 80f 73f
6:00am  -   -   -  27 31 mph 1018.9mb 80f 73f
5:50am 8ft 7s 6s 27 34 mph 1018.9mb 80f 73f
5:40am 8ft  -  6s 25 31 mph 1019mb 80f 73f
5:30am  -   -   -  25 29 mph 1019.1mb 80f 73f
5:20am  -   -   -  27 34 mph 1019.1mb 80f 73f
5:10am  -   -   -  25 31 mph 1019.1mb 80f 73f
5:00am  -   -   -  25 31 mph 1019.2mb 80f 73f
4:50am 8ft 6s 6s 27 31 mph 1019.2mb 80f 73f
4:40am  -   -   -  25 34 mph 1019.3mb 80f 73f
4:30am  -   -   -  25 31 mph 1019.4mb 80f -
4:20am  -   -   -  25 31 mph 1019.3mb 80f 73f
4:10am  -   -   -  25 31 mph 1019.5mb 80f 73f
4:00am  -   -   -  25 31 mph 1019.4mb 80f 73f
3:50am 8ft 6s 6s 25 29 mph 1019.4mb 80f 73f
3:40am  -   -   -  25 31 mph 1019.5mb 80f 73f
3:30am  -   -   -  25 29 mph 1019.5mb 80f 73f
3:20am  -   -   -  25 31 mph 1019.5mb 80f 73f
3:10am  -   -   -  25 29 mph 1019.5mb 80f 73f
3:00am  -   -   -  25 31 mph 1019.5mb 80f 73f
2:50am 8ft 6s 6s 25 31 mph 1019.5mb 80f 73f
2:40am 8ft  -  6s 25 31 mph 1019.5mb 80f 73f
2:30am  -   -   -  27 31 mph 1019.4mb 80f 73f
2:20am  -   -   -  27 31 mph 1019.3mb 80f 73f
2:10am  -   -   -  25 34 mph 1019.2mb 80f 73f
2:00am  -   -   -  27 34 mph 1019.1mb 80f 73f
1:50am 7.5ft 6s 6s 25 31 mph 1019.1mb 80f 73f
1:40am  -   -   -  27 31 mph 1019.1mb 80f 73f
1:30am  -   -   -  27 34 mph 1019mb 80f 73f
1:20am  -   -   -  27 31 mph 1019mb 80f 73f
1:10am  -   -   -  27 34 mph 1019mb 80f 73f
1:00am  -   -   -  25 31 mph 1018.9mb 80f 73f
12:50am 7ft 5s 6s 25 31 mph 1018.8mb 80f 73f
12:40am  -   -   -  25 34 mph 1018.6mb 80f 73f
12:30am  -   -   -  25 31 mph 1018.6mb 80f 73f
12:20am  -   -   -  25 31 mph 1018.4mb 80f 73f
12:10am  -   -   -  25 31 mph 1018.4mb 80f 73f
12:00am  -   -   -  25 31 mph 1018.2mb 80f 73f
Mon 11/20 11:50pm 7ft 9s 6s 25 29 mph 1018.2mb 80f 73f
11:40pm  -   -   -  25 29 mph 1018.2mb 80f 73f
11:30pm  -   -   -  22 29 mph 1018.2mb 80f 73f
11:20pm  -   -   -  25 27 mph 1018.2mb 80f 73f
11:10pm  -   -   -  22 29 mph 1018.1mb 80f 73f
11:00pm  -   -   -  22 29 mph 1018mb 80f 73f
10:50pm 7ft 7s 6s 22 29 mph 1018mb 80f 73f
10:40pm  -   -   -  22 27 mph 1017.9mb 80f 73f
10:30pm  -   -   -  22 27 mph 1017.7mb 80f 73f
10:20pm  -   -   -  22 27 mph 1017.7mb 80f 73f
10:10pm  -   -   -  22 27 mph 1017.7mb 80f 73f
10:00pm  -   -   -  22 27 mph 1017.7mb 80f 72f
9:50pm 6.5ft 9s 6s 22 27 mph 1017.6mb 80f 72f
9:40pm 6.5ft  -  6s 22 27 mph 1017.5mb 80f 72f
9:30pm  -   -   -  22 27 mph 1017.3mb 80f 72f
9:20pm  -   -   -  22 27 mph 1017.3mb 80f 72f
9:10pm  -   -   -  22 27 mph 1017.3mb 80f 72f
9:00pm  -   -   -  20 25 mph 1017.4mb 80f 72f
8:50pm 5ft 8s 5s 20 27 mph 1017.3mb 80f 72f
8:40pm 5ft  -  5s 20 27 mph 1017.2mb 80f 72f
8:30pm  -   -   -  22 27 mph 1017mb 80f 72f
8:20pm  -   -   -  20 27 mph 1016.9mb 80f 71f
8:10pm  -   -   -  18 22 mph 1017.2mb 80f 71f
8:00pm  -   -   -  20 27 mph 1017.2mb 80f 71f
7:50pm 4.5ft 8s 5s 20 25 mph 1017.1mb 80f 71f
7:40pm 4.5ft  -  5s 20 25 mph 1017mb 80f 71f
7:30pm  -   -   -  18 22 mph 1017.2mb 80f 70f
7:20pm  -   -   -  18 22 mph 1017.2mb 80f 70f
7:10pm  -   -   -  18 20 mph 1017.1mb 80f 70f
7:00pm  -   -   -  18 20 mph 1017mb 80f 70f
6:50pm 4.5ft 9s 5s 18 22 mph 1016.9mb 80f 70f
6:40pm 4.5ft  -  5s 18 22 mph 1017mb 80f 71f
6:30pm  -   -   -  18 22 mph 1017mb 80f 71f
6:20pm  -   -   -  18 22 mph 1017mb 80f 70f
6:10pm  -   -   -  18 22 mph 1017.1mb 80f 70f
6:00pm  -   -   -  20 27 mph 1017mb 80f 70f
5:50pm 4ft 9s 5s 20 25 mph 1017.1mb 80f 69f
5:40pm  -   -   -  20 22 mph 1017.2mb 80f 70f
5:30pm  -   -   -  20 25 mph 1017.3mb 80f 70f
5:20pm  -   -   -  22 29 mph 1017.3mb 80f 69f
5:10pm  -   -   -  22 29 mph 1017.5mb 80f 69f
5:00pm  -   -   -  22 29 mph 1017.7mb 80f 69f
4:50pm 3.5ft 11s 5s 22 27 mph 1017.7mb 80f 70f
4:40pm  -   -   -  22 25 mph 1017.9mb 80f 70f
4:30pm  -   -   -  20 27 mph 1018mb - 72f
4:20pm  -   -   -  13 18 mph 1018.1mb 80f 72f
4:10pm  -   -   -  13 16 mph 1018.3mb - 71f
4:00pm  -   -   -  11 16 mph 1018.3mb 80f 71f
3:50pm 3.5ft 8s 5s 11 13 mph 1018.4mb 80f 71f
3:40pm  -   -   -  11 16 mph 1018.5mb 80f 71f
3:30pm  -   -   -  11 13 mph 1018.5mb 80f 72f
3:20pm  -   -   -  9 11 mph 1018.6mb 80f 72f
3:10pm  -   -   -  4 7 mph 1018.5mb 80f 71f
3:00pm  -   -   -  4 7 mph 1018.4mb 80f 70f
2:50pm 4ft 5s 5s 7 11 mph 1018.4mb 80f 69f
2:40pm  -   -   -  9 11 mph 1018.5mb 80f 67f
2:30pm  -   -   -  11 18 mph 1018.6mb 80f 67f
2:20pm  -   -   -  16 18 mph 1018.6mb 80f 67f
2:10pm  -   -   -  18 20 mph 1018.6mb 80f 66f
2:00pm  -   -   -  18 25 mph 1018.5mb 80f 66f
1:50pm 3.5ft 8s 4s 20 25 mph 1018.4mb 80f 67f
1:40pm  -   -   -  20 25 mph 1018.2mb 80f 67f
1:30pm  -   -   -  20 27 mph 1018.1mb 80f 67f
1:20pm  -   -   -  22 34 mph 1018mb 80f 69f
1:10pm  -   -   -  18 22 mph 1017.7mb 80f 70f
1:00pm  -   -   -  20 25 mph 1017.4mb 80f 71f
12:50pm 3.5ft 8s 5s 20 22 mph 1017.2mb 80f 71f
12:40pm  -   -   -  20 25 mph 1016.9mb 80f 71f
12:30pm  -   -   -  20 25 mph 1016.7mb 80f 72f
12:20pm  -   -   -  20 27 mph 1016.5mb 80f 73f
12:10pm  -   -   -  18 27 mph 1016.3mb 80f 75f
12:00pm  -   -   -  9 11 mph 1016.3mb 80f 76f
11:50am 3.5ft 8s 5s 9 11 mph 1016.2mb 80f 76f
11:40am  -   -   -  9 11 mph 1016mb 80f 76f
11:30am  -   -   -  9 11 mph 1015.9mb 80f 76f
11:20am  -   -   -  9 11 mph 1015.7mb 80f 76f
11:10am  -   -   -  9 11 mph 1015.6mb 80f 76f
11:00am  -   -   -  9 11 mph 1015.4mb 80f 76f
10:50am 3.5ft 9s 6s 9 13 mph 1015.3mb 80f 76f
10:40am  -   -   -  9 13 mph 1015.2mb 80f 76f
10:30am  -   -   -  9 11 mph 1015.1mb 80f 76f
10:20am  -   -   -  9 13 mph 1015mb 80f 76f
10:10am  -   -   -  9 13 mph 1014.8mb 80f 76f
10:00am  -   -   -  11 13 mph 1014.8mb 80f 76f
9:50am 4ft 8s 5s 11 16 mph 1014.6mb 80f 76f
9:40am  -   -   -  11 13 mph 1014.5mb 80f 76f
9:30am  -   -   -  11 13 mph 1014.5mb 80f 76f
9:20am  -   -   -  11 16 mph 1014.4mb 80f 76f
9:10am  -   -   -  13 16 mph 1014.3mb 80f 76f
9:00am  -   -   -  11 16 mph 1014.2mb 80f 76f
8:50am 4ft 8s 5s 13 16 mph 1014.1mb 80f 76f
8:40am 4ft  -  5s 13 16 mph 1014.1mb 80f 76f
8:30am  -   -   -  13 16 mph 1014.1mb 80f 76f
8:20am  -   -   -  13 16 mph 1014mb 80f 76f
8:10am  -   -   -  13 18 mph 1014.1mb 80f 76f
8:00am  -   -   -  13 16 mph 1014mb 80f 76f
7:50am 4ft 8s 5s 13 16 mph 1014mb 80f 76f
7:40am 4ft  -  5s 13 16 mph 1014.1mb 80f 76f
7:30am  -   -   -  13 16 mph 1014.1mb 80f 76f
7:20am  -   -   -  13 16 mph 1014.2mb 80f 76f
7:10am  -   -   -  13 16 mph 1014.2mb 80f 76f
7:00am  -   -   -  13 16 mph 1014.3mb 80f 76f
6:50am 4ft 8s 5s 13 16 mph 1014.2mb 80f 76f
6:40am  -   -   -  13 16 mph 1014.2mb 80f 76f
6:30am  -   -   -  13 16 mph 1014.2mb 80f 76f
6:20am  -   -   -  13 16 mph 1014.2mb 80f 76f
6:10am  -   -   -  13 18 mph 1014.1mb 80f 76f
6:00am  -   -   -  13 18 mph 1014.2mb - 76f
5:50am 3.5ft 8s 5s 13 16 mph 1014.1mb 80f 76f
5:40am 3.5ft  -  5s 13 18 mph 1014.2mb 80f 76f
5:30am  -   -   -  13 18 mph 1014.2mb 80f 76f
5:20am  -   -   -  13 18 mph 1014.3mb 80f 76f
5:10am  -   -   -  13 18 mph 1014.3mb 80f 76f
5:00am  -   -   -  13 18 mph 1014.5mb 80f 76f
4:50am 3.5ft 7s 6s 16 18 mph 1014.4mb 80f 76f
4:40am  -   -   -  13 18 mph 1014.5mb 80f 76f
4:30am  -   -   -  13 18 mph 1014.4mb 80f 76f
4:20am  -   -   -  13 16 mph 1014.5mb 80f 76f
4:10am  -   -   -  13 18 mph 1014.5mb 80f 76f
4:00am  -   -   -  13 16 mph 1014.6mb 80f 76f
3:50am 4ft 7s 6s 13 18 mph 1014.6mb 80f 76f
3:40am  -   -   -  13 18 mph 1014.7mb 80f 76f
3:30am  -   -   -  13 16 mph 1014.7mb 80f 76f
3:20am  -   -   -  13 16 mph 1014.8mb 80f 76f
3:10am  -   -   -  13 18 mph 1014.7mb 80f 76f
3:00am  -   -   -  13 18 mph 1014.7mb 80f 76f
2:50am 4ft 8s 6s 13 18 mph 1014.7mb 80f 76f
2:40am 4ft  -  6s 13 16 mph 1014.7mb 80f 76f
2:30am  -   -   -  11 16 mph 1014.7mb 80f 76f
2:20am  -   -   -  11 13 mph 1014.8mb 80f 76f
2:10am  -   -   -  11 13 mph 1014.8mb 80f 76f
2:00am  -   -   -  9 13 mph 1014.9mb 80f 76f
1:50am 3.5ft 8s 6s 9 13 mph 1014.9mb 80f 76f
1:40am  -   -   -  9 11 mph 1014.9mb 80f 76f
1:30am  -   -   -  9 13 mph 1014.8mb 80f 76f
1:20am  -   -   -  9 11 mph 1014.9mb 80f 76f
1:10am  -   -   -  9 11 mph 1014.8mb 80f 76f
1:00am  -   -   -  9 13 mph 1014.7mb 80f 76f
12:50am 3.5ft 8s 6s 9 11 mph 1014.6mb - 76f
12:40am 3.5ft  -  6s 9 11 mph 1014.5mb 80f 76f
12:30am  -   -   -  9 11 mph 1014.5mb 80f 76f
12:20am  -   -   -  9 13 mph 1014.3mb 80f 76f
12:10am  -   -   -  9 11 mph 1014.2mb 80f 76f
12:00am  -   -   -  9 11 mph 1014.1mb 80f 76f
Sun 11/19 11:50pm 4ft 8s 6s 9 11 mph 1014mb 80f 76f
11:40pm  -   -   -  9 13 mph 1013.9mb 80f 76f
11:30pm  -   -   -  9 11 mph 1013.7mb 80f 75f
11:20pm  -   -   -  9 11 mph 1013.7mb 80f 75f
11:10pm  -   -   -  9 11 mph 1013.7mb 80f 75f
11:00pm  -   -   -  9 11 mph 1013.5mb 80f 75f
10:50pm 4.5ft 8s 6s 9 13 mph 1013.4mb 80f 75f
10:40pm 4.5ft  -  6s 9 11 mph 1013.3mb 80f 75f
10:30pm  -   -   -  11 13 mph 1013.2mb 80f 75f
10:20pm  -   -   -  9 13 mph 1012.9mb 80f 75f
10:10pm  -   -   -  11 13 mph 1012.9mb 80f 75f
10:00pm  -   -   -  9 13 mph 1012.9mb 80f 75f
9:50pm 4.5ft 8s 6s 9 13 mph 1012.9mb 80f 75f
9:40pm  -   -   -  9 11 mph 1012.9mb 80f 75f
9:30pm  -   -   -  9 13 mph 1012.9mb 80f 75f
9:20pm  -   -   -  9 13 mph 1012.9mb 80f 75f
9:10pm  -   -   -  7 13 mph 1012.8mb 80f 75f
9:00pm  -   -   -  4 7 mph 1012.9mb 80f 75f
8:50pm 4.5ft 8s 6s 4 9 mph 1012.9mb 80f 74f
8:40pm 4.5ft  -  6s 7 11 mph 1012.9mb 80f 74f
8:30pm  -   -   -  9 13 mph 1012.9mb 80f 74f
8:20pm  -   -   -  13 18 mph 1012.9mb 80f 74f
8:10pm  -   -   -  9 16 mph 1012.9mb 80f 75f
8:00pm  -   -   -  9 13 mph 1012.9mb - 75f
7:50pm 4.5ft 10s 6s 11 13 mph 1013mb 80f 76f
7:40pm 4.5ft  -  6s 11 16 mph 1013mb 80f 76f
7:30pm  -   -   -  11 13 mph 1013mb 80f 76f
7:20pm  -   -   -  11 13 mph 1012.9mb 80f 76f
7:10pm  -   -   -  11 13 mph 1013mb 80f 76f
7:00pm  -   -   -  11 13 mph 1013.1mb 80f 76f
6:50pm 4.5ft 8s 6s 9 11 mph 1013.2mb 80f 76f
6:40pm 4.5ft  -  6s 9 11 mph 1013.3mb 80f 76f
6:30pm  -   -   -  9 11 mph 1013.4mb 80f 76f
6:20pm  -   -   -  7 9 mph 1013.5mb 80f 76f
6:10pm  -   -   -  7 11 mph 1013.7mb 80f 76f
6:00pm  -   -   -  9 11 mph 1013.8mb 80f 76f
5:50pm 4.5ft 9s 6s 9 11 mph 1014mb 80f 76f
5:40pm 4.5ft  -  6s 9 11 mph 1014.1mb 80f 76f
5:30pm  -   -   -  9 11 mph 1014.3mb 80f 76f
5:20pm  -   -   -  7 11 mph 1014.3mb 80f 76f
5:10pm  -   -   -  9 11 mph 1014.4mb 80f 76f
5:00pm  -   -   -  9 13 mph 1014.5mb 80f 76f
4:50pm 4.5ft 9s 6s 9 11 mph 1014.7mb 80f 76f
4:40pm 4.5ft  -  6s 9 11 mph 1014.9mb 80f 76f
4:30pm  -   -   -  9 11 mph 1015.1mb 80f 76f
4:20pm  -   -   -  9 11 mph 1015.2mb 80f 76f
4:10pm  -   -   -  9 13 mph 1015.3mb 80f 76f
4:00pm  -   -   -  9 13 mph 1015.5mb 80f 76f
3:50pm 4.5ft 9s 6s 9 11 mph 1015.6mb 80f 76f
3:40pm  -   -   -  9 13 mph 1015.8mb 80f 76f
3:30pm  -   -   -  9 11 mph 1015.7mb 80f 76f
3:20pm  -   -   -  9 11 mph 1015.8mb 80f 76f
3:10pm  -   -   -  9 11 mph 1015.9mb 80f 76f
3:00pm  -   -   -  9 11 mph 1015.9mb 80f 76f
2:50pm 5ft 10s 7s 9 11 mph 1016mb 80f 76f
2:40pm 5ft  -  7s 9 13 mph 1016.1mb 80f 76f
2:30pm  -   -   -  9 11 mph 1016.1mb 80f 76f
2:20pm  -   -   -  9 13 mph 1016.1mb 80f 76f
2:10pm  -   -   -  9 13 mph 1016.2mb 80f 76f
2:00pm  -   -   -  9 11 mph 1016.2mb 80f 76f
1:50pm 5ft 9s 7s 9 13 mph 1016.1mb 80f 76f
1:40pm  -   -   -  9 13 mph 1016.1mb 80f 76f
1:30pm  -   -   -  9 11 mph 1016.1mb 80f 76f
1:20pm  -   -   -  9 11 mph 1016.1mb 80f 76f
1:10pm  -   -   -  9 11 mph 1016mb - 76f
1:00pm  -   -   -  9 11 mph 1015.9mb 80f -
12:50pm 5ft 8s 6s 9 13 mph 1015.9mb 80f 76f
12:40pm 5ft  -  6s 9 11 mph 1015.8mb 80f 76f
12:30pm  -   -   -  9 11 mph 1015.7mb 80f -
12:20pm  -   -   -  9 13 mph 1015.6mb 80f 76f
12:10pm  -   -   -  9 11 mph 1015.5mb 80f 76f
12:00pm  -   -   -  9 11 mph 1015.4mb 80f 76f
11:50am 5ft 9s 6s 9 11 mph 1015.3mb 80f 76f
11:40am  -   -   -  9 13 mph 1015.3mb 79f 76f
11:30am  -   -   -  9 13 mph 1015.3mb 80f 76f
11:20am  -   -   -  9 11 mph 1015.2mb 80f 76f
11:10am  -   -   -  9 11 mph 1015.1mb 79f 75f
11:00am  -   -   -  7 11 mph 1015.1mb 79f 75f
10:50am 5.5ft 10s 6s 7 9 mph 1015mb 80f 75f
10:40am 5.5ft  -  6s 7 9 mph 1015mb 80f 75f
10:30am  -   -   -  7 11 mph 1014.9mb 80f 75f
10:20am  -   -   -  7 11 mph 1014.9mb 79f 75f
10:10am  -   -   -  7 11 mph 1014.7mb 80f 75f
10:00am  -   -   -  9 11 mph 1014.7mb 79f 75f
9:50am 5.5ft 8s 6s 7 9 mph 1014.7mb 79f 75f
9:40am  -   -   -  9 11 mph 1014.6mb 79f 75f
9:30am  -   -   -  9 13 mph 1014.6mb - 75f
9:20am  -   -   -  9 13 mph 1014.6mb 80f 75f
9:10am  -   -   -  9 13 mph 1014.6mb 79f 75f
9:00am  -   -   -  9 11 mph 1014.6mb 79f 75f
8:50am 5.5ft 10s 6s 9 11 mph 1014.7mb 79f 75f
8:40am  -   -   -  9 13 mph 1014.6mb 80f 75f
8:30am  -   -   -  9 13 mph 1014.6mb - 75f
8:20am  -   -   -  9 13 mph 1014.7mb 79f 75f
8:10am  -   -   -  9 13 mph 1014.6mb 79f 75f
8:00am  -   -   -  9 11 mph 1014.7mb 79f 75f
7:50am 6ft 10s 7s 9 13 mph 1014.7mb 79f 75f
7:40am  -   -   -  9 13 mph 1014.7mb 79f 75f
7:30am  -   -   -  11 16 mph 1014.8mb 79f 75f
7:20am  -   -   -  11 13 mph 1014.9mb 79f 75f
7:10am  -   -   -  11 13 mph 1015mb 79f 75f
7:00am  -   -   -  9 13 mph 1015mb 79f 75f
6:50am 6.5ft 9s 7s 11 16 mph 1015mb - 75f
6:40am  -   -   -  11 16 mph 1015mb 79f 75f
6:30am  -   -   -  11 16 mph 1015mb 79f 75f
6:20am  -   -   -  11 16 mph 1015mb 79f 75f
6:10am  -   -   -  11 18 mph 1015.1mb 79f 75f
6:00am  -   -   -  11 16 mph 1015.1mb 79f 75f
5:50am 6ft 10s 7s 11 16 mph 1015.3mb 80f 75f
5:40am  -   -   -  11 16 mph 1015.4mb 79f 75f
5:30am  -   -   -  11 16 mph 1015.5mb - 75f
5:20am  -   -   -  13 18 mph 1015.5mb 79f 75f
5:10am  -   -   -  11 16 mph 1015.5mb 79f 75f
5:00am  -   -   -  13 18 mph 1015.6mb 80f 75f
4:50am 6ft 8s 6s 11 16 mph 1015.7mb 79f 75f
4:40am  -   -   -  13 18 mph 1015.7mb 79f 75f
4:30am  -   -   -  13 18 mph 1015.8mb 80f 75f
4:20am  -   -   -  13 18 mph 1015.8mb - 75f
4:10am  -   -   -  13 18 mph 1015.8mb 80f 75f
4:00am  -   -   -  13 18 mph 1015.9mb 80f 75f
3:50am 6ft 9s 6s 11 16 mph 1016mb 80f 75f
3:40am  -   -   -  13 18 mph 1016mb 80f 75f
3:30am  -   -   -  13 16 mph 1016.1mb 79f 75f
3:20am  -   -   -  13 16 mph 1016.1mb 80f 75f
3:10am  -   -   -  13 18 mph 1016.1mb 80f 75f
3:00am  -   -   -  13 16 mph 1016.1mb 80f 75f
2:50am 6.5ft 9s 6s 13 18 mph 1016.1mb 80f 75f
2:40am 6.5ft  -  6s 13 20 mph 1016mb 80f 75f
2:30am  -   -   -  16 18 mph 1016.1mb 80f 75f
2:20am  -   -   -  13 20 mph 1016.1mb 80f 75f
2:10am  -   -   -  13 20 mph 1016.1mb 80f 75f
2:00am  -   -   -  16 20 mph 1016.1mb 80f 75f
1:50am 6.5ft 9s 6s 16 20 mph 1016.1mb 80f 75f
1:40am  -   -   -  13 18 mph 1016.1mb 80f 75f
1:30am  -   -   -  13 18 mph 1016.2mb 80f 75f
1:20am  -   -   -  16 20 mph 1016.1mb 80f 75f
1:10am  -   -   -  16 20 mph 1016mb 80f 75f
1:00am  -   -   -  16 20 mph 1015.9mb - 75f
12:50am 7ft  -  6s 16 20 mph 1015.8mb 80f 75f
12:40am 7ft 9s 6s  -  mph - - -
12:30am  -   -   -  18 22 mph 1015.6mb 80f 75f
12:20am  -   -   -  16 20 mph 1015.6mb - 75f
12:10am  -   -   -  16 20 mph 1015.6mb 80f 75f
12:00am  -   -   -  16 22 mph 1015.6mb 80f 75f
Sat 11/18 11:50pm 7ft 9s 6s 16 20 mph 1015.6mb 80f 75f
11:40pm  -   -   -  16 20 mph 1015.5mb 80f 75f
11:30pm  -   -   -  16 20 mph 1015.4mb 80f 75f
11:20pm  -   -   -  16 20 mph 1015.4mb 80f 75f
11:10pm  -   -   -  16 20 mph 1015.4mb 80f 75f
11:00pm  -   -   -  16 20 mph 1015.2mb 80f 75f
10:50pm 7ft 8s 6s 16 20 mph 1015.2mb 80f 75f
10:40pm 7ft  -  6s 16 20 mph 1015.1mb 80f 75f
10:30pm  -   -   -  16 20 mph 1015mb 80f 75f
10:20pm  -   -   -  16 20 mph 1015mb 80f 75f
10:10pm  -   -   -  16 20 mph 1014.9mb 80f 75f
10:00pm  -   -   -  16 20 mph 1014.8mb 80f 75f
9:50pm 7ft 8s 6s 16 20 mph 1014.8mb 80f 75f
9:40pm 7ft  -  6s 16 20 mph 1014.7mb 80f 75f
9:30pm  -   -   -  16 22 mph 1014.6mb 80f 75f
9:20pm  -   -   -  16 20 mph 1014.5mb 80f 75f
9:10pm  -   -   -  16 22 mph 1014.4mb 80f 75f
9:00pm  -   -   -  18 22 mph 1014.4mb 80f 75f
8:50pm 7ft 8s 6s 16 20 mph 1014.4mb 80f 75f
8:40pm  -   -   -  16 20 mph 1014.4mb 80f 75f
8:30pm  -   -   -  16 20 mph 1014.3mb 80f 75f
8:20pm  -   -   -  16 20 mph 1014.3mb 80f 75f
8:10pm  -   -   -  16 20 mph 1014.3mb 80f 75f
8:00pm  -   -   -  16 20 mph 1014.3mb 80f 75f
7:50pm 7ft 8s 6s 16 22 mph 1014.3mb 80f 75f
7:40pm 7ft  -  6s 18 22 mph 1014.3mb 80f 75f
7:30pm  -   -   -  16 22 mph 1014.3mb 80f 75f
7:20pm  -   -   -  16 22 mph 1014.4mb 80f 75f
7:10pm  -   -   -  16 22 mph 1014.5mb 80f 75f
7:00pm  -   -   -  16 20 mph 1014.6mb 80f 75f
6:50pm 7ft 7s 6s 16 20 mph 1014.6mb 80f 75f
6:40pm  -   -   -  16 22 mph 1014.7mb 80f 75f
6:30pm  -   -   -  18 22 mph 1014.8mb 80f 75f
6:20pm  -   -   -  18 22 mph 1014.8mb 80f 75f
6:10pm  -   -   -  16 20 mph 1014.9mb 80f 75f
6:00pm  -   -   -  13 18 mph 1015.1mb 80f 75f
5:50pm 7ft 8s 7s 16 20 mph 1015.3mb 80f 75f
5:40pm 7ft  -  7s 16 20 mph 1015.3mb 80f 75f
5:30pm  -   -   -  16 20 mph 1015.5mb 80f 75f
5:20pm  -   -   -  16 20 mph 1015.6mb 80f 75f
5:10pm  -   -   -  13 18 mph 1015.6mb 80f 76f
5:00pm  -   -   -  11 16 mph 1015.6mb 80f 76f
4:50pm 6.5ft 8s 6s 11 18 mph 1015.8mb 80f 76f
4:40pm 6.5ft  -  6s 11 16 mph 1015.9mb 80f 76f
4:30pm  -   -   -  11 16 mph 1016.1mb 80f 76f
4:20pm  -   -   -  11 16 mph 1016.2mb 80f 76f
4:10pm  -   -   -  13 18 mph 1016.4mb 80f 75f
4:00pm  -   -   -  13 16 mph 1016.5mb 80f 75f
3:50pm 6.5ft 8s 6s 13 18 mph 1016.6mb 80f 75f
3:40pm 6.5ft  -  6s 13 18 mph 1016.7mb 80f 75f
3:30pm  -   -   -  11 16 mph 1016.8mb 80f 75f
3:20pm  -   -   -  13 20 mph 1016.9mb 80f 75f
3:10pm  -   -   -  13 18 mph 1017mb 80f 75f
3:00pm  -   -   -  13 18 mph 1017mb 80f 75f
2:50pm 6ft 7s 6s 13 20 mph 1017mb 80f 75f
2:40pm 6ft  -  6s 16 18 mph 1017mb 80f 75f
2:30pm  -   -   -  13 18 mph 1017mb 80f 75f
2:20pm  -   -   -  13 20 mph 1016.9mb 80f 75f
2:10pm  -   -   -  16 20 mph 1016.9mb 80f 75f
2:00pm  -   -   -  16 20 mph 1016.8mb 80f 75f
1:50pm 6ft 7s 6s 16 22 mph 1016.8mb 80f 75f
1:40pm  -   -   -  16 20 mph 1016.7mb 80f 74f
1:30pm  -   -   -  16 25 mph 1016.7mb 80f 74f
1:20pm  -   -   -  18 22 mph 1016.4mb 80f 74f
1:10pm  -   -   -  18 22 mph 1016.3mb 80f 74f
1:00pm  -   -   -  18 22 mph 1016.1mb 80f 74f
12:50pm 7ft 7s 6s 18 22 mph 1016.1mb 80f 74f
12:40pm  -   -   -  18 25 mph 1016.1mb - 74f
12:30pm  -   -   -  18 22 mph 1016.1mb 80f 74f
12:20pm  -   -   -  18 25 mph 1016mb 80f 74f
12:10pm  -   -   -  18 25 mph 1016.1mb 80f 74f
12:00pm  -   -   -  18 22 mph 1015.9mb 80f 74f
11:50am 6.5ft 8s 6s 18 25 mph 1015.9mb 80f 74f
11:40am 6.5ft  -  6s 18 22 mph 1015.8mb 80f 74f
11:30am  -   -   -  18 25 mph 1015.8mb 80f 73f